createdAt,value
2023-02-24T00:01:02.342Z,5.40
2023-02-24T00:03:29.008Z,3.70
2023-02-24T00:05:55.651Z,4.00
2023-02-24T00:08:22.310Z,4.80
2023-02-24T00:10:48.921Z,4.40
2023-02-24T00:13:16.937Z,3.73
2023-02-24T00:15:43.597Z,3.67
2023-02-24T00:18:10.270Z,2.97
2023-02-24T00:20:36.975Z,3.63
2023-02-24T00:23:03.639Z,3.00
2023-02-24T00:25:30.272Z,3.27
2023-02-24T00:27:56.930Z,4.43
2023-02-24T00:30:24.969Z,3.93
2023-02-24T00:32:51.668Z,3.83
2023-02-24T00:35:18.356Z,4.10
2023-02-24T00:37:45.003Z,3.73
2023-02-24T00:40:12.638Z,3.17
2023-02-24T00:42:39.275Z,3.30
2023-02-24T00:45:07.408Z,3.13
2023-02-24T00:47:38.796Z,4.00
2023-02-24T00:50:06.536Z,3.90
2023-02-24T00:52:33.201Z,4.70
2023-02-24T00:54:59.873Z,4.10
2023-02-24T00:57:26.506Z,4.10
2023-02-24T00:59:53.175Z,3.50
2023-02-24T01:02:19.957Z,3.20
2023-02-24T01:04:47.945Z,2.57
2023-02-24T01:07:14.713Z,2.60
2023-02-24T01:09:41.378Z,3.60
2023-02-24T01:12:09.655Z,2.50
2023-02-24T01:14:36.374Z,3.27
2023-02-24T01:17:03.793Z,2.37
2023-02-24T01:19:31.916Z,2.93
2023-02-24T01:22:02.040Z,3.60
2023-02-24T01:24:31.191Z,3.20
2023-02-24T01:26:57.860Z,3.27
2023-02-24T01:29:24.552Z,3.60
2023-02-24T01:31:51.608Z,2.83
2023-02-24T01:34:18.744Z,3.17
2023-02-24T01:36:46.743Z,3.20
2023-02-24T01:39:14.769Z,2.93
2023-02-24T01:41:44.615Z,3.30
2023-02-24T01:44:45.003Z,3.20
2023-02-24T01:47:12.481Z,3.73
2023-02-24T01:49:42.258Z,3.50
2023-02-24T01:52:13.352Z,3.07
2023-02-24T01:54:44.010Z,3.27
2023-02-24T01:57:13.122Z,2.27
2023-02-24T01:59:39.810Z,2.80
2023-02-24T02:02:08.355Z,3.47
2023-02-24T02:04:40.674Z,2.70
2023-02-24T02:07:08.339Z,3.10
2023-02-24T02:09:35.021Z,2.57
2023-02-24T02:12:03.259Z,2.90
2023-02-24T02:14:31.811Z,2.93
2023-02-24T02:17:06.963Z,2.07
2023-02-24T02:20:01.056Z,3.13
2023-02-24T02:22:43.593Z,3.30
2023-02-24T02:25:16.318Z,3.07
2023-02-24T02:28:26.100Z,2.90
2023-02-24T02:31:14.824Z,2.93
2023-02-24T02:34:09.435Z,2.93
2023-02-24T02:36:47.381Z,3.10
2023-02-24T02:39:17.912Z,2.83
2023-02-24T02:41:52.008Z,3.60
2023-02-24T02:44:24.281Z,3.90
2023-02-24T02:46:56.490Z,2.73
2023-02-24T02:49:29.662Z,3.37
2023-02-24T02:52:02.982Z,2.67
2023-02-24T02:54:36.169Z,3.20
2023-02-24T02:57:09.094Z,4.27
2023-02-24T02:59:40.415Z,3.43
2023-02-24T03:02:09.123Z,3.13
2023-02-24T03:04:40.928Z,2.90
2023-02-24T03:07:09.599Z,2.67
2023-02-24T03:09:40.177Z,3.87
2023-02-24T03:12:10.690Z,2.83
2023-02-24T03:14:41.617Z,2.27
2023-02-24T03:17:11.768Z,3.87
2023-02-24T03:19:41.612Z,3.60
2023-02-24T03:22:11.798Z,3.10
2023-02-24T03:24:38.762Z,3.90
2023-02-24T03:27:11.475Z,2.97
2023-02-24T03:29:43.897Z,3.00
2023-02-24T03:32:17.904Z,2.50
2023-02-24T03:34:51.280Z,3.50
2023-02-24T03:37:18.262Z,2.73
2023-02-24T03:39:44.959Z,2.53
2023-02-24T03:42:16.495Z,3.37
2023-02-24T03:44:43.213Z,3.20
2023-02-24T03:47:09.869Z,3.27
2023-02-24T03:49:36.668Z,2.93
2023-02-24T03:52:15.685Z,3.17
2023-02-24T03:55:00.089Z,3.43
2023-02-24T03:57:35.427Z,2.60
2023-02-24T04:00:08.728Z,3.90
2023-02-24T04:02:35.586Z,2.40
2023-02-24T04:05:10.544Z,2.57
2023-02-24T04:07:43.894Z,3.00
2023-02-24T04:10:15.256Z,2.70
2023-02-24T04:12:47.723Z,3.33
2023-02-24T04:15:21.773Z,3.40
2023-02-24T04:17:52.119Z,2.07
2023-02-24T04:20:21.545Z,2.40
2023-02-24T04:22:52.730Z,3.13
2023-02-24T04:25:21.856Z,2.63
2023-02-24T04:27:48.765Z,2.57
2023-02-24T04:30:15.833Z,2.80
2023-02-24T04:32:43.051Z,2.30
2023-02-24T04:35:13.641Z,3.43
2023-02-24T04:37:40.325Z,2.47
2023-02-24T04:40:10.015Z,2.90
2023-02-24T04:42:36.675Z,3.23
2023-02-24T04:45:03.718Z,3.53
2023-02-24T04:47:30.366Z,2.63
2023-02-24T04:49:56.998Z,2.70
2023-02-24T04:52:23.650Z,2.23
2023-02-24T04:54:50.319Z,2.97
2023-02-24T04:57:18.308Z,3.00
2023-02-24T04:59:44.978Z,3.07
2023-02-24T05:02:11.650Z,2.37
2023-02-24T05:04:38.350Z,3.23
2023-02-24T05:07:05.093Z,2.97
2023-02-24T05:09:31.825Z,2.40
2023-02-24T05:11:58.477Z,2.50
2023-02-24T05:14:26.483Z,2.70
2023-02-24T05:16:53.177Z,2.90
2023-02-24T05:19:20.610Z,2.90
2023-02-24T05:21:47.240Z,2.73
2023-02-24T05:24:13.909Z,2.50
2023-02-24T05:26:40.548Z,1.63
2023-02-24T05:29:08.078Z,2.70
2023-02-24T05:31:37.298Z,3.80
2023-02-24T05:34:06.022Z,3.30
2023-02-24T05:36:36.272Z,2.53
2023-02-24T05:39:03.433Z,3.03
2023-02-24T05:41:30.262Z,1.80
2023-02-24T05:43:56.885Z,3.40
2023-02-24T05:46:25.677Z,2.63
2023-02-24T05:48:54.054Z,3.23
2023-02-24T05:51:20.969Z,2.53
2023-02-24T05:53:47.753Z,2.73
2023-02-24T05:56:14.398Z,2.90
2023-02-24T05:58:41.025Z,1.97
2023-02-24T06:01:11.694Z,2.20
2023-02-24T06:03:38.335Z,3.27
2023-02-24T06:06:06.538Z,3.20
2023-02-24T06:08:33.183Z,2.83
2023-02-24T06:10:59.824Z,2.77
2023-02-24T06:13:26.474Z,2.60
2023-02-24T06:15:55.327Z,2.23
2023-02-24T06:18:22.010Z,3.17
2023-02-24T06:20:48.685Z,2.70
2023-02-24T06:23:16.904Z,2.90
2023-02-24T06:25:43.634Z,2.60
2023-02-24T06:28:10.296Z,2.63
2023-02-24T06:30:37.285Z,2.33
2023-02-24T06:33:04.128Z,1.87
2023-02-24T06:35:30.829Z,2.30
2023-02-24T06:37:57.524Z,2.40
2023-02-24T06:40:25.526Z,3.00
2023-02-24T06:42:53.537Z,3.43
2023-02-24T06:45:20.957Z,3.23
2023-02-24T06:47:47.672Z,2.20
2023-02-24T06:50:15.270Z,3.03
2023-02-24T06:52:42.151Z,2.27
2023-02-24T06:55:10.354Z,3.10
2023-02-24T06:57:38.389Z,2.57
2023-02-24T07:00:06.183Z,3.20
2023-02-24T07:02:32.822Z,2.83
2023-02-24T07:04:59.473Z,3.80
2023-02-24T07:07:26.453Z,2.13
2023-02-24T07:09:53.165Z,2.23
2023-02-24T07:12:19.815Z,2.57
2023-02-24T07:14:47.816Z,2.37
2023-02-24T07:17:14.506Z,2.77
2023-02-24T07:19:41.185Z,2.57
2023-02-24T07:22:09.218Z,2.73
2023-02-24T07:24:37.153Z,3.00
2023-02-24T07:27:06.461Z,2.30
2023-02-24T07:29:34.628Z,2.93
2023-02-24T07:32:04.462Z,3.23
2023-02-24T07:34:31.965Z,2.00
2023-02-24T07:36:58.710Z,1.77
2023-02-24T07:39:25.538Z,2.40
2023-02-24T07:41:53.388Z,2.57
2023-02-24T07:44:21.573Z,1.87
2023-02-24T07:46:48.299Z,1.80
2023-02-24T07:49:18.539Z,1.40
2023-02-24T07:51:45.832Z,2.70
2023-02-24T07:54:12.513Z,2.27
2023-02-24T07:56:40.082Z,1.83
2023-02-24T07:59:07.062Z,2.33
2023-02-24T08:01:36.000Z,2.03
2023-02-24T08:04:02.641Z,1.80
2023-02-24T08:06:33.450Z,1.97
2023-02-24T08:09:00.120Z,1.80
2023-02-24T08:11:27.539Z,1.57
2023-02-24T08:13:54.219Z,1.40
2023-02-24T08:16:20.934Z,1.83
2023-02-24T08:18:47.630Z,1.87
2023-02-24T08:21:14.765Z,2.10
2023-02-24T08:23:43.003Z,1.70
2023-02-24T08:26:09.727Z,2.37
2023-02-24T08:28:36.423Z,1.50
2023-02-24T08:31:03.660Z,1.73
2023-02-24T08:33:30.638Z,2.07
2023-02-24T08:35:57.585Z,1.07
2023-02-24T08:38:26.345Z,1.60
2023-02-24T08:40:54.689Z,1.20
2023-02-24T08:43:25.112Z,1.90
2023-02-24T08:45:54.600Z,1.00
2023-02-24T08:48:23.382Z,1.17
2023-02-24T08:50:50.174Z,1.70
2023-02-24T08:53:16.883Z,1.33
2023-02-24T08:55:43.553Z,1.13
2023-02-24T08:58:11.792Z,2.60
2023-02-24T09:00:38.481Z,1.53
2023-02-24T09:03:05.168Z,1.20
2023-02-24T09:05:31.808Z,1.50
2023-02-24T09:07:58.475Z,1.50
2023-02-24T09:10:25.287Z,2.10
2023-02-24T09:12:51.944Z,1.50
2023-02-24T09:15:20.071Z,1.20
2023-02-24T09:17:46.761Z,0.90
2023-02-24T09:20:15.486Z,1.10
2023-02-24T09:22:42.121Z,1.50
2023-02-24T09:25:11.114Z,1.13
2023-02-24T09:27:37.904Z,1.27
2023-02-24T09:30:05.491Z,0.90
2023-02-24T09:32:33.645Z,0.73
2023-02-24T09:35:00.332Z,1.40
2023-02-24T09:37:27.093Z,1.37
2023-02-24T09:39:54.846Z,1.27
2023-02-24T09:42:24.076Z,1.63
2023-02-24T09:44:53.591Z,1.30
2023-02-24T09:47:26.095Z,1.57
2023-02-24T09:49:55.855Z,1.70
2023-02-24T09:52:27.078Z,1.93
2023-02-24T09:54:54.096Z,1.83
2023-02-24T09:57:23.925Z,1.67
2023-02-24T09:59:57.656Z,2.47
2023-02-24T10:02:37.695Z,1.73
2023-02-24T10:05:16.412Z,1.60
2023-02-24T10:07:43.998Z,1.80
2023-02-24T10:10:15.660Z,1.50
2023-02-24T10:12:42.653Z,1.33
2023-02-24T10:15:14.251Z,1.43
2023-02-24T10:17:40.999Z,1.80
2023-02-24T10:20:15.509Z,1.93
2023-02-24T10:22:49.307Z,2.27
2023-02-24T10:25:44.928Z,1.53
2023-02-24T10:28:24.420Z,1.60
2023-02-24T10:31:02.434Z,1.20
2023-02-24T10:33:34.788Z,1.63
2023-02-24T10:36:17.483Z,1.20
2023-02-24T10:38:45.825Z,1.83
2023-02-24T10:41:14.230Z,1.50
2023-02-24T10:43:41.485Z,1.80
2023-02-24T10:46:26.435Z,2.17
2023-02-24T10:48:59.996Z,2.33
2023-02-24T10:51:32.506Z,1.13
2023-02-24T10:54:11.113Z,2.23
2023-02-24T10:56:42.272Z,3.03
2023-02-24T10:59:11.709Z,2.23
2023-02-24T11:01:38.534Z,1.57
2023-02-24T11:04:05.242Z,1.77
2023-02-24T11:06:33.342Z,1.90
2023-02-24T11:09:00.223Z,2.30
2023-02-24T11:11:35.228Z,2.87
2023-02-24T11:14:03.106Z,2.47
2023-02-24T11:16:39.828Z,1.37
2023-02-24T11:19:07.076Z,2.30
2023-02-24T11:21:35.134Z,1.33
2023-02-24T11:24:04.073Z,2.00
2023-02-24T11:26:35.326Z,3.23
2023-02-24T11:29:23.718Z,1.73
2023-02-24T11:32:06.440Z,2.10
2023-02-24T11:34:42.937Z,2.20
2023-02-24T11:37:25.587Z,1.50
2023-02-24T11:39:58.655Z,1.93
2023-02-24T11:42:29.546Z,1.63
2023-02-24T11:45:01.746Z,1.90
2023-02-24T11:47:33.953Z,2.00
2023-02-24T11:50:14.118Z,2.10
2023-02-24T11:52:45.619Z,1.83
2023-02-24T11:55:20.097Z,2.10
2023-02-24T11:57:50.016Z,2.47
2023-02-24T12:00:20.739Z,2.20
2023-02-24T12:02:53.639Z,1.43
2023-02-24T12:05:24.621Z,2.20
2023-02-24T12:07:56.170Z,2.07
2023-02-24T12:10:27.433Z,1.70
2023-02-24T12:13:02.727Z,1.80
2023-02-24T12:15:33.455Z,1.50
2023-02-24T12:18:06.095Z,1.00
2023-02-24T12:20:38.248Z,1.93
2023-02-24T12:23:14.399Z,1.30
2023-02-24T12:25:53.839Z,1.77
2023-02-24T12:28:34.847Z,1.20
2023-02-24T12:31:13.214Z,2.03
2023-02-24T12:33:51.277Z,1.87
2023-02-24T12:36:30.516Z,2.17
2023-02-24T12:39:08.780Z,1.70
2023-02-24T12:41:46.230Z,2.23
2023-02-24T12:44:26.602Z,2.10
2023-02-24T12:46:59.687Z,1.87
2023-02-24T12:49:39.796Z,2.50
2023-02-24T12:52:16.283Z,2.70
2023-02-24T12:54:49.790Z,2.33
2023-02-24T12:57:25.166Z,1.17
2023-02-24T12:59:52.928Z,2.30
2023-02-24T13:02:31.269Z,2.40
2023-02-24T13:05:05.484Z,1.47
2023-02-24T13:07:47.344Z,1.37
2023-02-24T13:10:28.512Z,1.83
2023-02-24T13:13:06.495Z,1.50
2023-02-24T13:15:33.281Z,1.90
2023-02-24T13:18:00.018Z,1.87
2023-02-24T13:20:30.030Z,1.40
2023-02-24T13:22:57.727Z,1.40
2023-02-24T13:25:30.521Z,1.97
2023-02-24T13:28:00.535Z,2.03
2023-02-24T13:30:33.041Z,1.53
2023-02-24T13:33:02.859Z,3.03
2023-02-24T13:35:33.750Z,1.50
2023-02-24T13:38:25.048Z,1.80
2023-02-24T13:40:53.258Z,1.67
2023-02-24T13:43:26.489Z,1.20
2023-02-24T13:46:00.291Z,2.30
2023-02-24T13:48:57.612Z,1.70
2023-02-24T13:52:02.224Z,0.80
2023-02-24T13:55:00.381Z,1.33
2023-02-24T13:57:48.763Z,1.50
2023-02-24T14:00:26.767Z,1.57
2023-02-24T14:02:54.090Z,1.00
2023-02-24T14:05:25.541Z,1.00
2023-02-24T14:07:53.470Z,1.50
2023-02-24T14:10:22.474Z,1.10
2023-02-24T14:12:57.155Z,1.10
2023-02-24T14:15:26.824Z,1.37
2023-02-24T14:17:58.569Z,1.80
2023-02-24T14:20:27.107Z,1.30
2023-02-24T14:22:55.587Z,1.70
2023-02-24T14:25:23.328Z,1.33
2023-02-24T14:27:53.395Z,1.00
2023-02-24T14:30:28.165Z,1.50
2023-02-24T14:32:55.438Z,1.30
2023-02-24T14:35:28.598Z,1.80
2023-02-24T14:37:55.295Z,1.30
2023-02-24T14:40:21.991Z,1.10
2023-02-24T14:42:51.096Z,2.10
2023-02-24T14:45:20.184Z,1.37
2023-02-24T14:47:46.950Z,4.67
2023-02-24T14:50:16.571Z,1.77
2023-02-24T14:52:48.866Z,1.77
2023-02-24T14:55:18.970Z,1.60
2023-02-24T14:57:56.617Z,1.60
2023-02-24T15:00:26.528Z,2.00
2023-02-24T15:03:01.260Z,1.47
2023-02-24T15:05:28.215Z,2.20
2023-02-24T15:07:54.984Z,1.87
2023-02-24T15:10:24.789Z,1.93
2023-02-24T15:12:57.431Z,1.77
2023-02-24T15:15:27.963Z,1.60
2023-02-24T15:17:57.355Z,1.80
2023-02-24T15:20:26.538Z,2.40
2023-02-24T15:22:54.021Z,2.50
2023-02-24T15:25:28.011Z,2.13
2023-02-24T15:28:03.801Z,2.80
2023-02-24T15:30:33.899Z,2.17
2023-02-24T15:33:06.167Z,2.20
2023-02-24T15:35:34.322Z,2.50
2023-02-24T15:38:02.440Z,2.20
2023-02-24T15:40:29.797Z,2.03
2023-02-24T15:42:58.046Z,2.50
2023-02-24T15:45:30.693Z,2.10
2023-02-24T15:47:59.833Z,2.10
2023-02-24T15:50:28.156Z,2.17
2023-02-24T15:52:58.144Z,2.70
2023-02-24T15:55:27.372Z,2.40
2023-02-24T15:58:00.664Z,2.80
2023-02-24T16:00:29.583Z,3.03
2023-02-24T16:02:56.792Z,2.90
2023-02-24T16:05:23.992Z,2.87
2023-02-24T16:07:50.784Z,2.70
2023-02-24T16:10:20.910Z,3.00
2023-02-24T16:12:51.762Z,2.87
2023-02-24T16:15:22.736Z,2.73
2023-02-24T16:17:51.744Z,3.50
2023-02-24T16:20:21.093Z,2.80
2023-02-24T16:22:47.850Z,2.73
2023-02-24T16:25:16.477Z,2.50
2023-02-24T16:27:43.352Z,3.10
2023-02-24T16:30:15.797Z,2.90
2023-02-24T16:32:42.615Z,3.13
2023-02-24T16:35:11.886Z,3.23
2023-02-24T16:37:39.167Z,3.13
2023-02-24T16:40:20.092Z,3.50
2023-02-24T16:42:47.219Z,2.90
2023-02-24T16:45:13.978Z,3.30
2023-02-24T16:47:41.757Z,3.93
2023-02-24T16:50:18.856Z,4.70
2023-02-24T16:52:45.570Z,3.77
2023-02-24T16:55:13.055Z,3.57
2023-02-24T16:57:39.944Z,3.83
2023-02-24T17:00:08.090Z,3.23
2023-02-24T17:02:34.958Z,3.70
2023-02-24T17:05:01.770Z,4.70
2023-02-24T17:07:29.872Z,3.80
2023-02-24T17:09:56.529Z,4.80
2023-02-24T17:12:23.206Z,4.30
2023-02-24T17:14:50.045Z,4.33
2023-02-24T17:17:16.824Z,3.50
2023-02-24T17:19:43.477Z,5.10
2023-02-24T17:22:10.255Z,5.13
2023-02-24T17:24:38.378Z,6.10
2023-02-24T17:27:05.107Z,5.97
2023-02-24T17:29:31.798Z,5.37
2023-02-24T17:31:58.635Z,6.00
2023-02-24T17:34:25.445Z,6.73
2023-02-24T17:36:52.191Z,6.37
2023-02-24T17:39:18.895Z,5.30
2023-02-24T17:41:46.862Z,6.23
2023-02-24T17:44:13.578Z,6.37
2023-02-24T17:46:40.476Z,6.93
2023-02-24T17:49:07.272Z,6.50
2023-02-24T17:51:33.987Z,7.93
2023-02-24T17:54:00.725Z,6.60
2023-02-24T17:56:27.418Z,6.07
2023-02-24T17:58:55.470Z,6.43
2023-02-24T18:01:22.102Z,6.63
2023-02-24T18:03:48.907Z,6.23
2023-02-24T18:06:15.794Z,7.40
2023-02-24T18:08:42.472Z,6.40
2023-02-24T18:11:13.606Z,6.50
2023-02-24T18:13:40.310Z,5.27
2023-02-24T18:16:10.852Z,7.23
2023-02-24T18:18:37.829Z,7.17
2023-02-24T18:21:05.534Z,6.80
2023-02-24T18:23:32.735Z,7.80
2023-02-24T18:26:01.589Z,7.90
2023-02-24T18:28:28.363Z,7.97
2023-02-24T18:30:55.134Z,6.50
2023-02-24T18:33:23.447Z,8.13
2023-02-24T18:35:57.689Z,7.43
2023-02-24T18:38:24.438Z,8.77
2023-02-24T18:40:57.526Z,7.70
2023-02-24T18:43:24.365Z,8.10
2023-02-24T18:45:56.196Z,9.10
2023-02-24T18:48:24.733Z,7.83
2023-02-24T18:50:53.057Z,8.20
2023-02-24T18:53:21.043Z,6.40
2023-02-24T18:55:48.180Z,8.77
2023-02-24T18:58:15.832Z,7.30
2023-02-24T19:00:43.443Z,7.50
2023-02-24T19:03:10.498Z,8.13
2023-02-24T19:05:39.182Z,8.23
2023-02-24T19:08:05.943Z,8.90
2023-02-24T19:10:32.685Z,9.57
2023-02-24T19:12:59.346Z,8.80
2023-02-24T19:15:25.976Z,10.90
2023-02-24T19:17:52.645Z,10.00
2023-02-24T19:20:19.371Z,9.10
2023-02-24T19:22:48.741Z,9.57
2023-02-24T19:25:17.281Z,9.70
2023-02-24T19:27:43.903Z,13.60
2023-02-24T19:30:11.626Z,12.60
2023-02-24T19:32:38.632Z,10.30
2023-02-24T19:35:06.235Z,10.47
2023-02-24T19:37:33.559Z,9.90
2023-02-24T19:40:01.614Z,10.90
2023-02-24T19:42:28.262Z,14.20
2023-02-24T19:44:54.927Z,14.60
2023-02-24T19:47:21.581Z,12.33
2023-02-24T19:49:48.224Z,13.60
2023-02-24T19:52:15.008Z,12.33
2023-02-24T19:54:41.685Z,12.40
2023-02-24T19:57:10.416Z,12.37
2023-02-24T19:59:37.162Z,12.03
2023-02-24T20:02:03.770Z,10.07
2023-02-24T20:04:30.495Z,11.80
2023-02-24T20:06:57.144Z,11.97
2023-02-24T20:09:23.789Z,12.60
2023-02-24T20:11:51.408Z,10.47
2023-02-24T20:14:19.560Z,11.57
2023-02-24T20:16:46.893Z,13.57
2023-02-24T20:19:15.287Z,12.00
2023-02-24T20:21:42.236Z,9.90
2023-02-24T20:24:13.696Z,12.03
2023-02-24T20:26:42.267Z,10.20
2023-02-24T20:29:09.401Z,11.47
2023-02-24T20:31:37.520Z,10.40
2023-02-24T20:34:05.348Z,11.03
2023-02-24T20:36:32.101Z,11.27
2023-02-24T20:38:59.123Z,11.87
2023-02-24T20:41:26.832Z,10.30
2023-02-24T20:43:53.776Z,11.00
2023-02-24T20:46:23.225Z,10.83
2023-02-24T20:48:52.027Z,10.60
2023-02-24T20:51:18.952Z,8.23
2023-02-24T20:53:56.651Z,7.80
2023-02-24T20:56:25.840Z,8.20
2023-02-24T20:58:56.453Z,7.30
2023-02-24T21:01:23.241Z,6.27
2023-02-24T21:03:52.095Z,6.03
2023-02-24T21:06:19.181Z,4.60
2023-02-24T21:08:46.144Z,3.80
2023-02-24T21:11:13.852Z,5.20
2023-02-24T21:13:41.880Z,3.97
2023-02-24T21:16:10.016Z,3.60
2023-02-24T21:18:38.522Z,4.60
2023-02-24T21:21:07.935Z,3.50
2023-02-24T21:23:35.152Z,4.30
2023-02-24T21:26:01.955Z,4.17
2023-02-24T21:28:28.719Z,2.77
2023-02-24T21:30:55.713Z,4.30
2023-02-24T21:33:22.516Z,4.10
2023-02-24T21:35:57.592Z,3.13
2023-02-24T21:38:25.854Z,3.10
2023-02-24T21:40:52.569Z,3.63
2023-02-24T21:43:19.268Z,5.07
2023-02-24T21:45:45.976Z,3.37
2023-02-24T21:48:12.630Z,3.13
2023-02-24T21:50:39.281Z,3.00
2023-02-24T21:53:05.937Z,4.53
2023-02-24T21:55:33.909Z,3.33
2023-02-24T21:58:00.571Z,3.73
2023-02-24T22:00:27.246Z,4.20
2023-02-24T22:02:55.616Z,3.63
2023-02-24T22:05:24.205Z,4.13
2023-02-24T22:07:51.548Z,4.70
2023-02-24T22:10:20.932Z,4.07
2023-02-24T22:12:49.693Z,4.77
2023-02-24T22:15:16.382Z,4.57
2023-02-24T22:17:43.036Z,3.73
2023-02-24T22:20:12.043Z,4.70
2023-02-24T22:22:39.938Z,5.10
2023-02-24T22:25:08.172Z,5.10
2023-02-24T22:27:34.849Z,4.30
2023-02-24T22:30:03.324Z,4.70
2023-02-24T22:32:30.242Z,3.70
2023-02-24T22:34:56.932Z,3.80
2023-02-24T22:37:23.646Z,3.97
2023-02-24T22:39:50.346Z,2.77
2023-02-24T22:42:17.028Z,2.67
2023-02-24T22:44:43.835Z,1.50
2023-02-24T22:47:11.851Z,1.77
2023-02-24T22:49:38.647Z,1.80
2023-02-24T22:52:05.311Z,2.13
2023-02-24T22:54:31.950Z,2.03
2023-02-24T22:56:58.615Z,2.40
2023-02-24T22:59:25.248Z,2.90
2023-02-24T23:01:51.894Z,2.97
2023-02-24T23:04:19.946Z,3.70
2023-02-24T23:06:46.585Z,3.30
2023-02-24T23:09:13.637Z,3.70
2023-02-24T23:11:41.481Z,3.80
2023-02-24T23:14:10.715Z,4.00
2023-02-24T23:16:37.885Z,4.90
2023-02-24T23:19:06.679Z,4.07
2023-02-24T23:21:36.343Z,4.17
2023-02-24T23:24:03.104Z,3.40
2023-02-24T23:26:30.492Z,4.30
2023-02-24T23:28:57.166Z,4.10
2023-02-24T23:31:24.117Z,4.90
2023-02-24T23:33:51.780Z,4.77
2023-02-24T23:36:18.964Z,4.43
2023-02-24T23:38:46.938Z,4.80
2023-02-24T23:41:14.191Z,4.00
2023-02-24T23:43:40.900Z,4.37
2023-02-24T23:46:10.032Z,3.90
2023-02-24T23:48:37.707Z,3.77
2023-02-24T23:51:05.496Z,3.50
2023-02-24T23:53:32.465Z,4.60
2023-02-24T23:56:00.476Z,3.53
2023-02-24T23:58:27.114Z,3.47
